Capitol Logistics 320


KRFD
Chicago/Rockford International Airport
Rockford, Illinois, US
KMCI
Kansas City International Airport
Kansas City, Missouri, US

Activity Log

Date Flight Route Aircraft Duration
01/14/2020 CPX320 BDF J26 IRK BQS6 B763 1h 18m
12/07/2019 CPX320 PLL MZV J232 IRK BQS4 B763 1h 16m
07/18/2019 CPX320 PLL MZV J232 IRK BQS4 B763 1h 12m

Route Details

Aircraft Information
Primary: Boeing 767-300BDSF
Backup: Boeing 757-200SF
Route Data
Distance: 309nm
Sched. Duration: 1h 14m
Avg. Duration: 1h 15m (+1m)
Times Flown: 3
Recm'd Route: PLL MZV J232 IRK BQS4
Planned Altitude: 32,000ft
Origin Wx: KRFD 281254Z 32008KT 4SM -SN OVC044 M07/M13 A3006 RMK AO2 SNB50 SLP191 P0000 T10671128
Dest. Wx: KMCI 281253Z 23010KT 10SM FEW050 FEW070 OVC110 00/M02 A3010 RMK AO2 SLP199 T00001017
Notes:

Financial History
Total Freight: 217,656lbs
Average Load: 72,552lbs/flt
Fuel Used: 37,050lbs
Avg. Fuel Used: 12,350lbs/flt
Fuel Expense: $27,046
Avg. Fuel Expense: $9,015
Avg. Fuel Cost: $0.73/lbs
Total Gross Income: $289,243
Pilot Pay: $457
Total Expenses: $31,394
Total Revenue: $230,070
Average Revenue: $96,414.40